Foxcroft, Pennsylvania
Current Conditions -  °F | °C
As of 8:54 AM on Tuesday 27 Jan 2015 (Local Time) from KPNE Reporting Station
Light Snow Light Snow  
Wind Chill: 15°   Ceiling: 2000
Heat Index: 27°   Visibility: 1mi
Dew Point: 20°   Wind: 15mph
Humidity: 75%   Direction: 330°NNW
Pressure: 29.76"   Gusts: NA
Location:  40.1039°N, 75.1072°W
Report Text: KPNE 271354Z AUTO 33013KT 1SM -SN VV020 M03/M07 A2976 RMK AO2 SLP079 P0001 T10281067 TSNO RVRNO
Loading
Personal Weather Stations






























Interactive Weather Map New forecast layout! Learn more

10-Day Weather Forecast

Advertisements
Track Severe Weather on mobile